sensor_id;sensor_type;location;lat;lon;timestamp;P1;durP1;ratioP1;P2;durP2;ratioP2
78410;SDS011;67706;51.074;-1.796;2023-05-15T00:01:43;3.67;;;2.08;;
78410;SDS011;67706;51.074;-1.796;2023-05-15T00:04:10;5.15;;;2.38;;
78410;SDS011;67706;51.074;-1.796;2023-05-15T00:06:37;4.72;;;2.60;;
78410;SDS011;67706;51.074;-1.796;2023-05-15T00:09:04;4.28;;;2.30;;
78410;SDS011;67706;51.074;-1.796;2023-05-15T00:11:30;3.97;;;2.40;;
78410;SDS011;67706;51.074;-1.796;2023-05-15T00:13:58;5.22;;;2.58;;
78410;SDS011;67706;51.074;-1.796;2023-05-15T00:16:25;5.43;;;2.63;;
78410;SDS011;67706;51.074;-1.796;2023-05-15T00:18:52;4.97;;;2.40;;
78410;SDS011;67706;51.074;-1.796;2023-05-15T00:21:18;3.78;;;2.30;;
78410;SDS011;67706;51.074;-1.796;2023-05-15T00:23:45;5.45;;;2.97;;
78410;SDS011;67706;51.074;-1.796;2023-05-15T00:26:12;5.30;;;2.70;;
78410;SDS011;67706;51.074;-1.796;2023-05-15T00:28:43;5.40;;;3.08;;
78410;SDS011;67706;51.074;-1.796;2023-05-15T00:31:11;5.22;;;2.88;;
78410;SDS011;67706;51.074;-1.796;2023-05-15T00:33:38;7.03;;;2.95;;
78410;SDS011;67706;51.074;-1.796;2023-05-15T00:36:05;8.73;;;3.70;;
78410;SDS011;67706;51.074;-1.796;2023-05-15T00:38:33;9.15;;;3.55;;
78410;SDS011;67706;51.074;-1.796;2023-05-15T00:40:59;6.22;;;3.25;;
78410;SDS011;67706;51.074;-1.796;2023-05-15T00:43:27;7.45;;;3.53;;
78410;SDS011;67706;51.074;-1.796;2023-05-15T00:45:54;7.22;;;3.42;;
78410;SDS011;67706;51.074;-1.796;2023-05-15T00:48:24;6.13;;;3.08;;
78410;SDS011;67706;51.074;-1.796;2023-05-15T00:50:51;7.10;;;3.75;;
78410;SDS011;67706;51.074;-1.796;2023-05-15T00:53:18;5.55;;;3.20;;
78410;SDS011;67706;51.074;-1.796;2023-05-15T00:55:45;8.82;;;3.92;;
78410;SDS011;67706;51.074;-1.796;2023-05-15T00:58:12;6.85;;;3.58;;
78410;SDS011;67706;51.074;-1.796;2023-05-15T01:00:40;8.20;;;3.95;;
78410;SDS011;67706;51.074;-1.796;2023-05-15T01:03:07;9.77;;;3.90;;
78410;SDS011;67706;51.074;-1.796;2023-05-15T01:05:36;6.90;;;3.35;;
78410;SDS011;67706;51.074;-1.796;2023-05-15T01:08:05;7.90;;;3.60;;
78410;SDS011;67706;51.074;-1.796;2023-05-15T01:10:48;7.03;;;3.72;;
78410;SDS011;67706;51.074;-1.796;2023-05-15T01:13:17;8.57;;;4.07;;
78410;SDS011;67706;51.074;-1.796;2023-05-15T01:15:45;8.50;;;4.00;;
78410;SDS011;67706;51.074;-1.796;2023-05-15T01:18:12;8.60;;;3.88;;
78410;SDS011;67706;51.074;-1.796;2023-05-15T01:20:43;7.40;;;3.95;;
78410;SDS011;67706;51.074;-1.796;2023-05-15T01:23:30;8.00;;;4.18;;
78410;SDS011;67706;51.074;-1.796;2023-05-15T01:26:17;8.70;;;3.97;;
78410;SDS011;67706;51.074;-1.796;2023-05-15T01:29:02;8.32;;;4.07;;
78410;SDS011;67706;51.074;-1.796;2023-05-15T01:31:34;7.15;;;3.80;;
78410;SDS011;67706;51.074;-1.796;2023-05-15T01:34:07;8.48;;;4.10;;
78410;SDS011;67706;51.074;-1.796;2023-05-15T01:36:36;7.47;;;3.70;;
78410;SDS011;67706;51.074;-1.796;2023-05-15T01:39:08;7.60;;;3.75;;
78410;SDS011;67706;51.074;-1.796;2023-05-15T01:41:40;7.13;;;3.95;;
78410;SDS011;67706;51.074;-1.796;2023-05-15T01:46:41;8.30;;;3.63;;
78410;SDS011;67706;51.074;-1.796;2023-05-15T01:49:11;7.65;;;3.78;;
78410;SDS011;67706;51.074;-1.796;2023-05-15T01:51:40;5.95;;;3.05;;
78410;SDS011;67706;51.074;-1.796;2023-05-15T01:54:09;5.72;;;2.42;;
78410;SDS011;67706;51.074;-1.796;2023-05-15T01:56:38;3.95;;;1.90;;
78410;SDS011;67706;51.074;-1.796;2023-05-15T01:59:09;4.05;;;1.90;;
78410;SDS011;67706;51.074;-1.796;2023-05-15T02:01:39;3.25;;;1.63;;
78410;SDS011;67706;51.074;-1.796;2023-05-15T02:04:07;2.08;;;1.27;;
78410;SDS011;67706;51.074;-1.796;2023-05-15T02:06:35;2.95;;;1.55;;
78410;SDS011;67706;51.074;-1.796;2023-05-15T02:09:02;2.58;;;1.55;;
78410;SDS011;67706;51.074;-1.796;2023-05-15T02:11:29;2.60;;;1.20;;
78410;SDS011;67706;51.074;-1.796;2023-05-15T02:13:56;2.38;;;1.58;;
78410;SDS011;67706;51.074;-1.796;2023-05-15T02:16:26;2.78;;;1.40;;
78410;SDS011;67706;51.074;-1.796;2023-05-15T02:18:53;2.50;;;1.45;;
78410;SDS011;67706;51.074;-1.796;2023-05-15T02:21:24;1.40;;;1.08;;
78410;SDS011;67706;51.074;-1.796;2023-05-15T02:23:50;3.83;;;1.50;;
78410;SDS011;67706;51.074;-1.796;2023-05-15T02:26:21;3.85;;;1.77;;
78410;SDS011;67706;51.074;-1.796;2023-05-15T02:28:58;4.72;;;1.50;;
78410;SDS011;67706;51.074;-1.796;2023-05-15T02:31:34;4.28;;;1.70;;
78410;SDS011;67706;51.074;-1.796;2023-05-15T02:34:08;6.43;;;1.90;;
78410;SDS011;67706;51.074;-1.796;2023-05-15T02:36:43;2.22;;;1.30;;
78410;SDS011;67706;51.074;-1.796;2023-05-15T02:39:12;3.65;;;1.83;;
78410;SDS011;67706;51.074;-1.796;2023-05-15T02:41:41;3.40;;;1.85;;
78410;SDS011;67706;51.074;-1.796;2023-05-15T02:44:10;4.15;;;1.63;;
78410;SDS011;67706;51.074;-1.796;2023-05-15T02:46:40;3.08;;;1.63;;
78410;SDS011;67706;51.074;-1.796;2023-05-15T02:49:07;3.17;;;1.85;;
78410;SDS011;67706;51.074;-1.796;2023-05-15T02:51:35;2.55;;;1.67;;
78410;SDS011;67706;51.074;-1.796;2023-05-15T02:54:02;3.00;;;1.95;;
78410;SDS011;67706;51.074;-1.796;2023-05-15T02:56:30;5.70;;;2.15;;
78410;SDS011;67706;51.074;-1.796;2023-05-15T02:58:57;3.95;;;1.73;;
78410;SDS011;67706;51.074;-1.796;2023-05-15T03:01:24;3.58;;;2.13;;
78410;SDS011;67706;51.074;-1.796;2023-05-15T03:03:52;4.63;;;2.05;;
78410;SDS011;67706;51.074;-1.796;2023-05-15T03:06:19;4.13;;;1.90;;
78410;SDS011;67706;51.074;-1.796;2023-05-15T03:08:45;4.68;;;1.85;;
78410;SDS011;67706;51.074;-1.796;2023-05-15T03:11:12;3.65;;;2.03;;
78410;SDS011;67706;51.074;-1.796;2023-05-15T03:13:39;5.35;;;2.10;;
78410;SDS011;67706;51.074;-1.796;2023-05-15T03:16:05;5.18;;;2.25;;
78410;SDS011;67706;51.074;-1.796;2023-05-15T03:18:32;3.55;;;2.05;;
78410;SDS011;67706;51.074;-1.796;2023-05-15T03:21:00;6.07;;;2.50;;
78410;SDS011;67706;51.074;-1.796;2023-05-15T03:23:27;5.30;;;2.00;;
78410;SDS011;67706;51.074;-1.796;2023-05-15T03:25:55;3.30;;;2.30;;
78410;SDS011;67706;51.074;-1.796;2023-05-15T03:28:22;6.47;;;2.13;;
78410;SDS011;67706;51.074;-1.796;2023-05-15T03:30:48;4.10;;;2.17;;
78410;SDS011;67706;51.074;-1.796;2023-05-15T03:33:15;5.30;;;2.30;;
78410;SDS011;67706;51.074;-1.796;2023-05-15T03:35:42;3.65;;;1.70;;
78410;SDS011;67706;51.074;-1.796;2023-05-15T03:38:10;3.88;;;2.30;;
78410;SDS011;67706;51.074;-1.796;2023-05-15T03:40:37;3.38;;;1.70;;
78410;SDS011;67706;51.074;-1.796;2023-05-15T03:43:04;9.40;;;1.90;;
78410;SDS011;67706;51.074;-1.796;2023-05-15T03:45:31;7.43;;;1.85;;
78410;SDS011;67706;51.074;-1.796;2023-05-15T03:47:58;5.78;;;1.55;;
78410;SDS011;67706;51.074;-1.796;2023-05-15T03:50:25;2.28;;;1.10;;
78410;SDS011;67706;51.074;-1.796;2023-05-15T03:52:52;4.25;;;1.45;;
78410;SDS011;67706;51.074;-1.796;2023-05-15T03:55:20;6.70;;;1.42;;
78410;SDS011;67706;51.074;-1.796;2023-05-15T03:57:47;2.95;;;1.00;;
78410;SDS011;67706;51.074;-1.796;2023-05-15T04:00:14;4.28;;;1.23;;
78410;SDS011;67706;51.074;-1.796;2023-05-15T04:02:41;4.15;;;1.00;;
78410;SDS011;67706;51.074;-1.796;2023-05-15T04:05:07;4.78;;;1.27;;
78410;SDS011;67706;51.074;-1.796;2023-05-15T04:07:34;2.50;;;0.90;;
78410;SDS011;67706;51.074;-1.796;2023-05-15T04:10:02;2.67;;;0.82;;
78410;SDS011;67706;51.074;-1.796;2023-05-15T04:12:30;2.70;;;1.05;;
78410;SDS011;67706;51.074;-1.796;2023-05-15T04:15:00;2.53;;;1.05;;
78410;SDS011;67706;51.074;-1.796;2023-05-15T04:17:39;3.42;;;1.08;;
78410;SDS011;67706;51.074;-1.796;2023-05-15T04:20:06;9.40;;;1.45;;
78410;SDS011;67706;51.074;-1.796;2023-05-15T04:22:33;2.88;;;0.77;;
78410;SDS011;67706;51.074;-1.796;2023-05-15T04:25:00;5.95;;;1.20;;
78410;SDS011;67706;51.074;-1.796;2023-05-15T04:27:28;3.85;;;1.10;;
78410;SDS011;67706;51.074;-1.796;2023-05-15T04:29:56;6.55;;;1.30;;
78410;SDS011;67706;51.074;-1.796;2023-05-15T04:32:23;3.35;;;1.17;;
78410;SDS011;67706;51.074;-1.796;2023-05-15T04:34:49;3.65;;;1.10;;
78410;SDS011;67706;51.074;-1.796;2023-05-15T04:37:16;1.25;;;0.80;;
78410;SDS011;67706;51.074;-1.796;2023-05-15T04:39:43;6.53;;;0.80;;
78410;SDS011;67706;51.074;-1.796;2023-05-15T04:42:09;3.10;;;0.80;;
78410;SDS011;67706;51.074;-1.796;2023-05-15T04:44:36;5.32;;;1.70;;
78410;SDS011;67706;51.074;-1.796;2023-05-15T04:47:04;3.67;;;0.90;;
78410;SDS011;67706;51.074;-1.796;2023-05-15T04:49:31;6.10;;;0.98;;
78410;SDS011;67706;51.074;-1.796;2023-05-15T04:51:58;3.88;;;0.80;;
78410;SDS011;67706;51.074;-1.796;2023-05-15T04:54:25;2.95;;;0.90;;
78410;SDS011;67706;51.074;-1.796;2023-05-15T04:56:52;4.85;;;1.15;;
78410;SDS011;67706;51.074;-1.796;2023-05-15T04:59:18;2.88;;;0.98;;
78410;SDS011;67706;51.074;-1.796;2023-05-15T05:01:45;4.55;;;1.10;;
78410;SDS011;67706;51.074;-1.796;2023-05-15T05:04:13;4.53;;;1.20;;
78410;SDS011;67706;51.074;-1.796;2023-05-15T05:06:43;1.95;;;0.80;;
78410;SDS011;67706;51.074;-1.796;2023-05-15T05:09:10;3.63;;;1.10;;
78410;SDS011;67706;51.074;-1.796;2023-05-15T05:11:37;3.20;;;1.08;;
78410;SDS011;67706;51.074;-1.796;2023-05-15T05:14:07;3.72;;;1.05;;
78410;SDS011;67706;51.074;-1.796;2023-05-15T05:16:34;3.10;;;0.85;;
78410;SDS011;67706;51.074;-1.796;2023-05-15T05:19:01;5.45;;;1.00;;
78410;SDS011;67706;51.074;-1.796;2023-05-15T05:21:29;3.85;;;1.05;;
78410;SDS011;67706;51.074;-1.796;2023-05-15T05:23:56;2.47;;;0.90;;
78410;SDS011;67706;51.074;-1.796;2023-05-15T05:26:23;2.83;;;1.17;;
78410;SDS011;67706;51.074;-1.796;2023-05-15T05:28:50;7.38;;;1.15;;
78410;SDS011;67706;51.074;-1.796;2023-05-15T05:31:16;3.53;;;0.90;;
78410;SDS011;67706;51.074;-1.796;2023-05-15T05:33:43;2.42;;;0.90;;
78410;SDS011;67706;51.074;-1.796;2023-05-15T05:36:10;4.32;;;1.10;;
78410;SDS011;67706;51.074;-1.796;2023-05-15T05:38:38;2.97;;;1.00;;
78410;SDS011;67706;51.074;-1.796;2023-05-15T05:41:04;9.15;;;1.08;;
78410;SDS011;67706;51.074;-1.796;2023-05-15T05:43:31;2.30;;;1.00;;
78410;SDS011;67706;51.074;-1.796;2023-05-15T05:45:58;6.10;;;0.95;;
78410;SDS011;67706;51.074;-1.796;2023-05-15T05:48:24;3.53;;;1.15;;
78410;SDS011;67706;51.074;-1.796;2023-05-15T05:50:51;0.98;;;0.30;;
78410;SDS011;67706;51.074;-1.796;2023-05-15T05:53:18;2.35;;;0.73;;
78410;SDS011;67706;51.074;-1.796;2023-05-15T05:55:46;3.83;;;1.13;;
78410;SDS011;67706;51.074;-1.796;2023-05-15T05:58:13;5.97;;;0.93;;
78410;SDS011;67706;51.074;-1.796;2023-05-15T06:00:41;5.72;;;0.90;;
78410;SDS011;67706;51.074;-1.796;2023-05-15T06:03:08;5.35;;;0.82;;
78410;SDS011;67706;51.074;-1.796;2023-05-15T06:05:35;4.82;;;0.90;;
78410;SDS011;67706;51.074;-1.796;2023-05-15T06:08:02;5.18;;;0.55;;
78410;SDS011;67706;51.074;-1.796;2023-05-15T06:10:29;1.92;;;0.98;;
78410;SDS011;67706;51.074;-1.796;2023-05-15T06:12:57;4.38;;;0.88;;
78410;SDS011;67706;51.074;-1.796;2023-05-15T06:15:23;3.08;;;0.68;;
78410;SDS011;67706;51.074;-1.796;2023-05-15T06:17:50;1.55;;;0.40;;
78410;SDS011;67706;51.074;-1.796;2023-05-15T06:20:17;1.95;;;0.95;;
78410;SDS011;67706;51.074;-1.796;2023-05-15T06:22:44;2.85;;;0.60;;
78410;SDS011;67706;51.074;-1.796;2023-05-15T06:25:11;3.65;;;1.00;;
78410;SDS011;67706;51.074;-1.796;2023-05-15T06:27:39;1.38;;;0.65;;
78410;SDS011;67706;51.074;-1.796;2023-05-15T06:30:08;3.90;;;0.77;;
78410;SDS011;67706;51.074;-1.796;2023-05-15T06:32:35;2.20;;;0.80;;
78410;SDS011;67706;51.074;-1.796;2023-05-15T06:35:02;3.75;;;0.88;;
78410;SDS011;67706;51.074;-1.796;2023-05-15T06:37:29;2.17;;;0.80;;
78410;SDS011;67706;51.074;-1.796;2023-05-15T06:39:56;3.40;;;0.70;;
78410;SDS011;67706;51.074;-1.796;2023-05-15T06:42:22;5.00;;;0.90;;
78410;SDS011;67706;51.074;-1.796;2023-05-15T06:44:49;3.85;;;0.90;;
78410;SDS011;67706;51.074;-1.796;2023-05-15T06:47:17;2.80;;;0.77;;
78410;SDS011;67706;51.074;-1.796;2023-05-15T06:49:44;7.30;;;2.25;;
78410;SDS011;67706;51.074;-1.796;2023-05-15T06:52:10;4.25;;;0.90;;
78410;SDS011;67706;51.074;-1.796;2023-05-15T06:54:37;2.08;;;0.70;;
78410;SDS011;67706;51.074;-1.796;2023-05-15T06:57:04;5.63;;;1.00;;
78410;SDS011;67706;51.074;-1.796;2023-05-15T06:59:31;3.65;;;0.55;;
78410;SDS011;67706;51.074;-1.796;2023-05-15T07:01:59;6.18;;;0.88;;
78410;SDS011;67706;51.074;-1.796;2023-05-15T07:04:27;6.45;;;0.90;;
78410;SDS011;67706;51.074;-1.796;2023-05-15T07:06:58;4.88;;;0.70;;
78410;SDS011;67706;51.074;-1.796;2023-05-15T07:09:28;4.07;;;1.02;;
78410;SDS011;67706;51.074;-1.796;2023-05-15T07:11:55;4.07;;;1.02;;
78410;SDS011;67706;51.074;-1.796;2023-05-15T07:14:21;4.25;;;1.17;;
78410;SDS011;67706;51.074;-1.796;2023-05-15T07:16:48;6.15;;;1.13;;
78410;SDS011;67706;51.074;-1.796;2023-05-15T07:19:16;5.53;;;1.23;;
78410;SDS011;67706;51.074;-1.796;2023-05-15T07:21:44;3.42;;;0.90;;
78410;SDS011;67706;51.074;-1.796;2023-05-15T07:24:11;5.28;;;1.13;;
78410;SDS011;67706;51.074;-1.796;2023-05-15T07:26:38;7.22;;;1.45;;
78410;SDS011;67706;51.074;-1.796;2023-05-15T07:29:04;6.28;;;1.20;;
78410;SDS011;67706;51.074;-1.796;2023-05-15T07:31:31;3.78;;;0.73;;
78410;SDS011;67706;51.074;-1.796;2023-05-15T07:33:58;4.30;;;1.20;;
78410;SDS011;67706;51.074;-1.796;2023-05-15T07:36:25;4.72;;;1.08;;
78410;SDS011;67706;51.074;-1.796;2023-05-15T07:38:53;3.80;;;1.30;;
78410;SDS011;67706;51.074;-1.796;2023-05-15T07:41:20;4.75;;;0.90;;
78410;SDS011;67706;51.074;-1.796;2023-05-15T07:43:47;3.22;;;1.15;;
78410;SDS011;67706;51.074;-1.796;2023-05-15T07:46:13;2.20;;;1.15;;
78410;SDS011;67706;51.074;-1.796;2023-05-15T07:48:40;5.70;;;1.17;;
78410;SDS011;67706;51.074;-1.796;2023-05-15T07:51:07;2.65;;;0.88;;
78410;SDS011;67706;51.074;-1.796;2023-05-15T07:53:33;5.10;;;0.98;;
78410;SDS011;67706;51.074;-1.796;2023-05-15T07:56:01;2.83;;;0.82;;
78410;SDS011;67706;51.074;-1.796;2023-05-15T07:58:28;4.13;;;0.95;;
78410;SDS011;67706;51.074;-1.796;2023-05-15T08:00:55;3.70;;;0.98;;
78410;SDS011;67706;51.074;-1.796;2023-05-15T08:03:22;5.25;;;1.40;;
78410;SDS011;67706;51.074;-1.796;2023-05-15T08:05:48;7.05;;;1.27;;
78410;SDS011;67706;51.074;-1.796;2023-05-15T08:08:15;6.53;;;0.93;;
78410;SDS011;67706;51.074;-1.796;2023-05-15T08:10:42;3.40;;;1.10;;
78410;SDS011;67706;51.074;-1.796;2023-05-15T08:13:10;1.80;;;0.57;;
78410;SDS011;67706;51.074;-1.796;2023-05-15T08:15:37;5.22;;;1.10;;
78410;SDS011;67706;51.074;-1.796;2023-05-15T08:18:06;2.45;;;0.80;;
78410;SDS011;67706;51.074;-1.796;2023-05-15T08:20:33;6.35;;;1.10;;
78410;SDS011;67706;51.074;-1.796;2023-05-15T08:23:00;7.07;;;1.60;;
78410;SDS011;67706;51.074;-1.796;2023-05-15T08:25:27;10.43;;;1.73;;
78410;SDS011;67706;51.074;-1.796;2023-05-15T08:27:53;5.78;;;1.27;;
78410;SDS011;67706;51.074;-1.796;2023-05-15T08:30:22;3.42;;;0.65;;
78410;SDS011;67706;51.074;-1.796;2023-05-15T08:32:48;1.73;;;0.65;;
78410;SDS011;67706;51.074;-1.796;2023-05-15T08:35:15;2.10;;;0.30;;
78410;SDS011;67706;51.074;-1.796;2023-05-15T08:37:42;3.60;;;0.65;;
78410;SDS011;67706;51.074;-1.796;2023-05-15T08:40:09;1.50;;;0.55;;
78410;SDS011;67706;51.074;-1.796;2023-05-15T08:42:37;1.35;;;0.50;;
78410;SDS011;67706;51.074;-1.796;2023-05-15T08:47:39;2.50;;;0.90;;
78410;SDS011;67706;51.074;-1.796;2023-05-15T08:50:07;3.00;;;0.73;;
78410;SDS011;67706;51.074;-1.796;2023-05-15T08:52:36;3.55;;;0.50;;
78410;SDS011;67706;51.074;-1.796;2023-05-15T08:55:07;3.75;;;0.55;;
78410;SDS011;67706;51.074;-1.796;2023-05-15T08:57:34;5.90;;;1.00;;
78410;SDS011;67706;51.074;-1.796;2023-05-15T09:00:02;2.33;;;0.60;;
78410;SDS011;67706;51.074;-1.796;2023-05-15T09:02:32;5.00;;;0.80;;
78410;SDS011;67706;51.074;-1.796;2023-05-15T09:05:00;3.38;;;0.98;;
78410;SDS011;67706;51.074;-1.796;2023-05-15T09:07:28;2.55;;;0.73;;
78410;SDS011;67706;51.074;-1.796;2023-05-15T09:09:55;5.97;;;1.23;;
78410;SDS011;67706;51.074;-1.796;2023-05-15T09:12:23;1.88;;;0.75;;
78410;SDS011;67706;51.074;-1.796;2023-05-15T09:14:51;2.05;;;1.00;;
78410;SDS011;67706;51.074;-1.796;2023-05-15T09:17:32;2.78;;;0.90;;
78410;SDS011;67706;51.074;-1.796;2023-05-15T09:20:01;3.88;;;0.95;;
78410;SDS011;67706;51.074;-1.796;2023-05-15T09:22:30;6.10;;;0.85;;
78410;SDS011;67706;51.074;-1.796;2023-05-15T09:25:00;2.28;;;0.50;;
78410;SDS011;67706;51.074;-1.796;2023-05-15T09:27:27;2.63;;;0.98;;
78410;SDS011;67706;51.074;-1.796;2023-05-15T09:29:54;2.50;;;0.85;;
78410;SDS011;67706;51.074;-1.796;2023-05-15T09:32:22;3.30;;;0.70;;
78410;SDS011;67706;51.074;-1.796;2023-05-15T09:34:52;5.75;;;1.00;;
78410;SDS011;67706;51.074;-1.796;2023-05-15T09:37:29;4.35;;;0.90;;
78410;SDS011;67706;51.074;-1.796;2023-05-15T09:40:05;4.43;;;0.70;;
78410;SDS011;67706;51.074;-1.796;2023-05-15T09:42:34;2.25;;;0.57;;
78410;SDS011;67706;51.074;-1.796;2023-05-15T09:45:02;2.20;;;0.55;;
78410;SDS011;67706;51.074;-1.796;2023-05-15T09:47:30;3.85;;;0.68;;
78410;SDS011;67706;51.074;-1.796;2023-05-15T09:49:57;2.30;;;0.75;;
78410;SDS011;67706;51.074;-1.796;2023-05-15T09:52:24;3.55;;;0.70;;
78410;SDS011;67706;51.074;-1.796;2023-05-15T09:54:54;3.53;;;1.58;;
78410;SDS011;67706;51.074;-1.796;2023-05-15T09:57:21;7.55;;;1.00;;
78410;SDS011;67706;51.074;-1.796;2023-05-15T09:59:48;3.15;;;1.00;;
78410;SDS011;67706;51.074;-1.796;2023-05-15T10:02:21;2.97;;;0.47;;
78410;SDS011;67706;51.074;-1.796;2023-05-15T10:04:55;3.13;;;0.80;;
78410;SDS011;67706;51.074;-1.796;2023-05-15T10:07:29;4.40;;;1.00;;
78410;SDS011;67706;51.074;-1.796;2023-05-15T10:09:57;3.72;;;0.98;;
78410;SDS011;67706;51.074;-1.796;2023-05-15T10:12:25;1.92;;;0.70;;
78410;SDS011;67706;51.074;-1.796;2023-05-15T10:14:53;1.85;;;0.68;;
78410;SDS011;67706;51.074;-1.796;2023-05-15T10:17:22;1.80;;;0.73;;
78410;SDS011;67706;51.074;-1.796;2023-05-15T10:19:49;6.10;;;0.80;;
78410;SDS011;67706;51.074;-1.796;2023-05-15T10:22:18;4.25;;;0.70;;
78410;SDS011;67706;51.074;-1.796;2023-05-15T10:24:49;2.72;;;0.65;;
78410;SDS011;67706;51.074;-1.796;2023-05-15T10:27:24;1.83;;;0.40;;
78410;SDS011;67706;51.074;-1.796;2023-05-15T10:29:52;3.65;;;0.80;;
78410;SDS011;67706;51.074;-1.796;2023-05-15T10:32:21;1.98;;;0.82;;
78410;SDS011;67706;51.074;-1.796;2023-05-15T10:34:49;1.88;;;0.57;;
78410;SDS011;67706;51.074;-1.796;2023-05-15T10:37:17;3.22;;;0.85;;
78410;SDS011;67706;51.074;-1.796;2023-05-15T10:39:44;1.45;;;0.63;;
78410;SDS011;67706;51.074;-1.796;2023-05-15T10:42:13;2.65;;;0.50;;
78410;SDS011;67706;51.074;-1.796;2023-05-15T10:44:43;3.10;;;0.80;;
78410;SDS011;67706;51.074;-1.796;2023-05-15T10:47:10;2.58;;;0.90;;
78410;SDS011;67706;51.074;-1.796;2023-05-15T10:49:36;3.08;;;0.90;;
78410;SDS011;67706;51.074;-1.796;2023-05-15T10:52:04;2.10;;;0.90;;
78410;SDS011;67706;51.074;-1.796;2023-05-15T10:54:31;3.50;;;0.75;;
78410;SDS011;67706;51.074;-1.796;2023-05-15T10:56:58;1.92;;;0.90;;
78410;SDS011;67706;51.074;-1.796;2023-05-15T10:59:31;6.50;;;0.77;;
78410;SDS011;67706;51.074;-1.796;2023-05-15T11:04:53;2.80;;;1.15;;
78410;SDS011;67706;51.074;-1.796;2023-05-15T11:07:21;2.72;;;0.82;;
78410;SDS011;67706;51.074;-1.796;2023-05-15T11:09:48;4.82;;;1.10;;
78410;SDS011;67706;51.074;-1.796;2023-05-15T11:12:18;2.40;;;0.70;;
78410;SDS011;67706;51.074;-1.796;2023-05-15T11:17:47;2.67;;;0.90;;
78410;SDS011;67706;51.074;-1.796;2023-05-15T11:20:31;3.72;;;1.00;;
78410;SDS011;67706;51.074;-1.796;2023-05-15T11:22:59;2.90;;;0.80;;
78410;SDS011;67706;51.074;-1.796;2023-05-15T11:25:27;5.97;;;1.10;;
78410;SDS011;67706;51.074;-1.796;2023-05-15T11:27:56;1.45;;;0.60;;
78410;SDS011;67706;51.074;-1.796;2023-05-15T11:30:32;1.83;;;0.80;;
78410;SDS011;67706;51.074;-1.796;2023-05-15T11:33:02;2.85;;;1.00;;
78410;SDS011;67706;51.074;-1.796;2023-05-15T11:35:33;2.35;;;0.93;;
78410;SDS011;67706;51.074;-1.796;2023-05-15T11:38:02;3.90;;;1.00;;
78410;SDS011;67706;51.074;-1.796;2023-05-15T11:40:42;3.40;;;0.77;;
78410;SDS011;67706;51.074;-1.796;2023-05-15T11:43:15;2.25;;;0.70;;
78410;SDS011;67706;51.074;-1.796;2023-05-15T11:45:44;2.45;;;0.70;;
78410;SDS011;67706;51.074;-1.796;2023-05-15T11:48:15;1.60;;;0.60;;
78410;SDS011;67706;51.074;-1.796;2023-05-15T11:50:42;3.17;;;0.80;;
78410;SDS011;67706;51.074;-1.796;2023-05-15T11:53:10;3.08;;;0.80;;
78410;SDS011;67706;51.074;-1.796;2023-05-15T11:55:38;1.92;;;0.63;;
78410;SDS011;67706;51.074;-1.796;2023-05-15T11:58:09;1.58;;;0.70;;
78410;SDS011;67706;51.074;-1.796;2023-05-15T12:00:37;5.15;;;0.88;;
78410;SDS011;67706;51.074;-1.796;2023-05-15T12:03:04;1.17;;;0.70;;
78410;SDS011;67706;51.074;-1.796;2023-05-15T12:05:32;2.00;;;0.45;;
78410;SDS011;67706;51.074;-1.796;2023-05-15T12:07:59;3.47;;;0.70;;
78410;SDS011;67706;51.074;-1.796;2023-05-15T12:10:26;1.35;;;0.50;;
78410;SDS011;67706;51.074;-1.796;2023-05-15T12:12:53;4.30;;;0.73;;
78410;SDS011;67706;51.074;-1.796;2023-05-15T12:15:19;1.85;;;0.68;;
78410;SDS011;67706;51.074;-1.796;2023-05-15T12:17:46;1.77;;;0.82;;
78410;SDS011;67706;51.074;-1.796;2023-05-15T12:20:15;2.22;;;0.73;;
78410;SDS011;67706;51.074;-1.796;2023-05-15T12:22:44;2.60;;;1.05;;
78410;SDS011;67706;51.074;-1.796;2023-05-15T12:25:11;2.55;;;0.90;;
78410;SDS011;67706;51.074;-1.796;2023-05-15T12:27:40;3.53;;;0.80;;
78410;SDS011;67706;51.074;-1.796;2023-05-15T12:30:08;2.15;;;0.70;;
78410;SDS011;67706;51.074;-1.796;2023-05-15T12:32:36;1.50;;;0.73;;
78410;SDS011;67706;51.074;-1.796;2023-05-15T12:35:04;1.55;;;0.75;;
78410;SDS011;67706;51.074;-1.796;2023-05-15T12:37:31;2.50;;;0.90;;
78410;SDS011;67706;51.074;-1.796;2023-05-15T12:40:00;3.65;;;1.20;;
78410;SDS011;67706;51.074;-1.796;2023-05-15T12:42:37;2.65;;;1.00;;
78410;SDS011;67706;51.074;-1.796;2023-05-15T12:45:10;6.43;;;0.98;;
78410;SDS011;67706;51.074;-1.796;2023-05-15T12:47:39;3.17;;;0.80;;
78410;SDS011;67706;51.074;-1.796;2023-05-15T12:50:11;3.38;;;0.90;;
78410;SDS011;67706;51.074;-1.796;2023-05-15T12:52:40;4.40;;;0.90;;
78410;SDS011;67706;51.074;-1.796;2023-05-15T12:55:15;3.38;;;0.80;;
78410;SDS011;67706;51.074;-1.796;2023-05-15T12:57:42;2.05;;;0.70;;
78410;SDS011;67706;51.074;-1.796;2023-05-15T13:00:10;2.47;;;0.90;;
78410;SDS011;67706;51.074;-1.796;2023-05-15T13:02:38;6.25;;;0.90;;
78410;SDS011;67706;51.074;-1.796;2023-05-15T13:05:08;2.20;;;0.75;;
78410;SDS011;67706;51.074;-1.796;2023-05-15T13:07:35;1.23;;;0.63;;
78410;SDS011;67706;51.074;-1.796;2023-05-15T13:10:03;2.75;;;0.57;;
78410;SDS011;67706;51.074;-1.796;2023-05-15T13:12:35;3.42;;;0.85;;
78410;SDS011;67706;51.074;-1.796;2023-05-15T13:15:03;1.63;;;0.63;;
78410;SDS011;67706;51.074;-1.796;2023-05-15T13:17:31;3.42;;;0.75;;
78410;SDS011;67706;51.074;-1.796;2023-05-15T13:19:59;1.65;;;0.60;;
78410;SDS011;67706;51.074;-1.796;2023-05-15T13:22:25;1.65;;;0.60;;
78410;SDS011;67706;51.074;-1.796;2023-05-15T13:24:52;1.40;;;0.52;;
78410;SDS011;67706;51.074;-1.796;2023-05-15T13:27:19;2.65;;;0.82;;
78410;SDS011;67706;51.074;-1.796;2023-05-15T13:29:47;1.23;;;0.60;;
78410;SDS011;67706;51.074;-1.796;2023-05-15T13:32:14;1.52;;;0.60;;
78410;SDS011;67706;51.074;-1.796;2023-05-15T13:34:40;1.80;;;0.63;;
78410;SDS011;67706;51.074;-1.796;2023-05-15T13:37:07;1.08;;;0.60;;
78410;SDS011;67706;51.074;-1.796;2023-05-15T13:39:34;2.78;;;0.70;;
78410;SDS011;67706;51.074;-1.796;2023-05-15T13:42:00;1.88;;;0.50;;
78410;SDS011;67706;51.074;-1.796;2023-05-15T13:44:27;1.15;;;0.50;;
78410;SDS011;67706;51.074;-1.796;2023-05-15T13:46:56;1.27;;;0.88;;
78410;SDS011;67706;51.074;-1.796;2023-05-15T13:49:23;3.35;;;1.05;;
78410;SDS011;67706;51.074;-1.796;2023-05-15T13:51:50;2.15;;;0.50;;
78410;SDS011;67706;51.074;-1.796;2023-05-15T13:54:17;2.83;;;0.80;;
78410;SDS011;67706;51.074;-1.796;2023-05-15T13:56:43;3.42;;;0.63;;
78410;SDS011;67706;51.074;-1.796;2023-05-15T13:59:11;3.28;;;0.60;;
78410;SDS011;67706;51.074;-1.796;2023-05-15T14:01:38;1.73;;;0.52;;
78410;SDS011;67706;51.074;-1.796;2023-05-15T14:04:06;2.15;;;0.50;;
78410;SDS011;67706;51.074;-1.796;2023-05-15T14:06:32;7.55;;;1.20;;
78410;SDS011;67706;51.074;-1.796;2023-05-15T14:08:59;1.60;;;0.70;;
78410;SDS011;67706;51.074;-1.796;2023-05-15T14:11:26;2.03;;;0.60;;
78410;SDS011;67706;51.074;-1.796;2023-05-15T14:13:53;2.28;;;0.60;;
78410;SDS011;67706;51.074;-1.796;2023-05-15T14:16:23;1.42;;;0.52;;
78410;SDS011;67706;51.074;-1.796;2023-05-15T14:18:49;2.35;;;0.60;;
78410;SDS011;67706;51.074;-1.796;2023-05-15T14:21:17;1.83;;;0.73;;
78410;SDS011;67706;51.074;-1.796;2023-05-15T14:23:44;4.03;;;1.27;;
78410;SDS011;67706;51.074;-1.796;2023-05-15T14:26:12;1.92;;;0.60;;
78410;SDS011;67706;51.074;-1.796;2023-05-15T14:28:39;1.70;;;0.60;;
78410;SDS011;67706;51.074;-1.796;2023-05-15T14:31:06;1.52;;;0.65;;
78410;SDS011;67706;51.074;-1.796;2023-05-15T14:33:32;2.08;;;0.63;;
78410;SDS011;67706;51.074;-1.796;2023-05-15T14:35:59;2.15;;;0.60;;
78410;SDS011;67706;51.074;-1.796;2023-05-15T14:38:30;2.65;;;0.63;;
78410;SDS011;67706;51.074;-1.796;2023-05-15T14:40:56;1.80;;;0.68;;
78410;SDS011;67706;51.074;-1.796;2023-05-15T14:43:23;2.17;;;0.70;;
78410;SDS011;67706;51.074;-1.796;2023-05-15T14:45:50;1.83;;;0.52;;
78410;SDS011;67706;51.074;-1.796;2023-05-15T14:48:17;2.45;;;0.55;;
78410;SDS011;67706;51.074;-1.796;2023-05-15T14:50:45;3.25;;;0.77;;